Página principal
METAR-TAF:

METAR-TAF

Aeroportos :

Tin City, Alasca, Estados Unidos

latitude: 65-34N, longitude: 167-55W, altura: 83 m

Observação actual do tempo

O boletim foi feito há 53 minutos, às 19:55 UTC
Vento 9 kt de nordeste
Temperatura 11°C
Humidade 62%
Pressão 1016 hPa
Visibilidade: 16.1 km
Céu limpo

METAR: PATC 171955Z AUTO 05009KT 10SM CLR 11/04 A3001 RMK AO2 SLP163 T01120038

Hora: 12:48 (20:48 UTC)


TAF: em falta

Observações e previsões do tempo de mais de 4000 aeroportos (mensagens METAR e TAF).

As estações disponíveis são os pontos amarelos e vermelhos sobre o mapa.

Mova o rato sobre o mapa para ver o nome da estação.

Depois clique no ponto para visualizar as observações e previsões meteorológicas.

Para alterar o mapa : clique nos botões verdes com uma cruz preta para aumentar o zoom; no botão verde com uma pitada de zoom; ou nas setas verdes para mapas adjacentes.


METAR-TAF: